Santa Catalina, California
Current Conditions -  °F | °C
As of 2:51 PM on Thursday 18 Dec 2014 (Local Time) from KAVX Reporting Station
Light Rain Light Rain  
Wind Chill: 51°   Ceiling: 300
Heat Index: 51°   Visibility: 0.75mi
Dew Point: 50°   Wind: 6mph
Humidity: 96%   Direction: 110°ESE
Pressure: 30.15"   Gusts: NA
Location:  33.382°N, 118.433°W
Report Text: KAVX 182251Z AUTO 11005KT 3/4SM -RA BR VV003 11/10 A3015 RMK AO2 SLP210 P0004 T01060100
Loading
Personal Weather Stations






























Interactive Weather Map New forecast layout! Learn more

10-Day Weather Forecast

Advertisements
Track Severe Weather on mobile